sensor_id;sensor_type;location;lat;lon;timestamp;pressure;altitude;pressure_sealevel;temperature;humidity
26563;BME280;14217;50.986;5.826;2023-03-01T00:02:40;102320.44;;;16.16;37.34
26563;BME280;14217;50.986;5.826;2023-03-01T00:07:42;102318.69;;;16.16;37.24
26563;BME280;14217;50.986;5.826;2023-03-01T00:12:44;102312.53;;;16.16;37.31
26563;BME280;14217;50.986;5.826;2023-03-01T00:17:46;102322.31;;;16.06;37.53
26563;BME280;14217;50.986;5.826;2023-03-01T00:22:48;102333.69;;;16.16;37.29
26563;BME280;14217;50.986;5.826;2023-03-01T00:27:50;102339.19;;;15.93;37.66
26563;BME280;14217;50.986;5.826;2023-03-01T00:32:52;102347.00;;;16.07;37.33
26563;BME280;14217;50.986;5.826;2023-03-01T00:37:57;102340.75;;;16.14;37.24
26563;BME280;14217;50.986;5.826;2023-03-01T00:42:59;102338.97;;;16.13;37.47
26563;BME280;14217;50.986;5.826;2023-03-01T00:48:01;102335.53;;;16.08;37.28
26563;BME280;14217;50.986;5.826;2023-03-01T00:53:03;102335.47;;;16.14;36.96
26563;BME280;14217;50.986;5.826;2023-03-01T00:58:06;102327.53;;;16.15;37.18
26563;BME280;14217;50.986;5.826;2023-03-01T01:03:08;102318.56;;;16.27;36.85
26563;BME280;14217;50.986;5.826;2023-03-01T01:08:11;102328.44;;;16.10;37.29
26563;BME280;14217;50.986;5.826;2023-03-01T01:13:13;102330.16;;;16.14;37.24
26563;BME280;14217;50.986;5.826;2023-03-01T01:18:15;102323.16;;;16.10;37.37
26563;BME280;14217;50.986;5.826;2023-03-01T01:23:22;102304.50;;;16.22;37.16
26563;BME280;14217;50.986;5.826;2023-03-01T01:28:24;102297.53;;;16.16;37.13
26563;BME280;14217;50.986;5.826;2023-03-01T01:33:27;102293.06;;;16.20;37.06
26563;BME280;14217;50.986;5.826;2023-03-01T01:38:29;102289.53;;;16.21;37.27
26563;BME280;14217;50.986;5.826;2023-03-01T01:43:35;102286.25;;;16.00;37.61
26563;BME280;14217;50.986;5.826;2023-03-01T01:48:58;102271.19;;;16.09;37.57
26563;BME280;14217;50.986;5.826;2023-03-01T01:54:02;102262.25;;;16.17;37.25
26563;BME280;14217;50.986;5.826;2023-03-01T01:59:04;102257.78;;;16.22;37.09
26563;BME280;14217;50.986;5.826;2023-03-01T02:04:06;102254.28;;;16.22;37.25
26563;BME280;14217;50.986;5.826;2023-03-01T02:09:13;102249.91;;;16.18;37.17
26563;BME280;14217;50.986;5.826;2023-03-01T02:14:16;102243.84;;;16.10;37.25
26563;BME280;14217;50.986;5.826;2023-03-01T02:24:51;102223.59;;;16.09;37.70
26563;BME280;14217;50.986;5.826;2023-03-01T02:29:56;102216.41;;;16.17;37.25
26563;BME280;14217;50.986;5.826;2023-03-01T02:34:58;102218.16;;;16.19;37.17
26563;BME280;14217;50.986;5.826;2023-03-01T02:40:04;102219.16;;;16.11;37.68
26563;BME280;14217;50.986;5.826;2023-03-01T02:45:08;102227.09;;;16.09;37.46
26563;BME280;14217;50.986;5.826;2023-03-01T02:55:32;102231.53;;;16.07;37.31
26563;BME280;14217;50.986;5.826;2023-03-01T03:00:37;102234.09;;;16.13;37.47
26563;BME280;14217;50.986;5.826;2023-03-01T03:05:47;102233.19;;;16.16;37.38
26563;BME280;14217;50.986;5.826;2023-03-01T03:10:50;102236.56;;;16.27;37.25
26563;BME280;14217;50.986;5.826;2023-03-01T03:15:51;102222.63;;;16.13;37.45
26563;BME280;14217;50.986;5.826;2023-03-01T03:20:54;102232.31;;;16.14;37.46
26563;BME280;14217;50.986;5.826;2023-03-01T03:25:56;102232.25;;;16.20;37.32
26563;BME280;14217;50.986;5.826;2023-03-01T03:30:58;102226.19;;;16.12;37.32
26563;BME280;14217;50.986;5.826;2023-03-01T03:36:05;102220.84;;;16.15;37.30
26563;BME280;14217;50.986;5.826;2023-03-01T03:41:12;102220.91;;;16.12;37.31
26563;BME280;14217;50.986;5.826;2023-03-01T03:46:14;102225.19;;;16.20;37.09
26563;BME280;14217;50.986;5.826;2023-03-01T03:51:18;102214.59;;;16.23;37.23
26563;BME280;14217;50.986;5.826;2023-03-01T03:56:20;102219.16;;;16.11;37.34
26563;BME280;14217;50.986;5.826;2023-03-01T04:01:23;102215.53;;;16.18;37.33
26563;BME280;14217;50.986;5.826;2023-03-01T04:06:25;102208.59;;;16.11;37.44
26563;BME280;14217;50.986;5.826;2023-03-01T04:11:27;102207.66;;;16.13;37.34
26563;BME280;14217;50.986;5.826;2023-03-01T04:16:29;102198.00;;;16.11;37.30
26563;BME280;14217;50.986;5.826;2023-03-01T04:21:31;102202.38;;;16.12;37.14
26563;BME280;14217;50.986;5.826;2023-03-01T04:26:33;102192.66;;;16.15;37.31
26563;BME280;14217;50.986;5.826;2023-03-01T04:31:36;102185.66;;;16.08;37.21
26563;BME280;14217;50.986;5.826;2023-03-01T04:36:37;102178.50;;;16.16;37.07
26563;BME280;14217;50.986;5.826;2023-03-01T04:41:41;102171.59;;;16.08;37.34
26563;BME280;14217;50.986;5.826;2023-03-01T04:46:45;102164.50;;;16.11;37.13
26563;BME280;14217;50.986;5.826;2023-03-01T04:51:46;102157.34;;;16.18;37.22
26563;BME280;14217;50.986;5.826;2023-03-01T04:56:48;102151.13;;;16.22;37.01
26563;BME280;14217;50.986;5.826;2023-03-01T05:01:51;102154.78;;;16.13;37.12
26563;BME280;14217;50.986;5.826;2023-03-01T05:06:54;102153.97;;;16.07;37.39
26563;BME280;14217;50.986;5.826;2023-03-01T05:11:55;102158.41;;;16.04;37.46
26563;BME280;14217;50.986;5.826;2023-03-01T05:16:57;102163.66;;;16.06;37.06
26563;BME280;14217;50.986;5.826;2023-03-01T05:22:05;102165.28;;;16.16;37.12
26563;BME280;14217;50.986;5.826;2023-03-01T05:27:07;102150.34;;;16.14;37.14
26563;BME280;14217;50.986;5.826;2023-03-01T05:32:09;102154.88;;;16.05;37.31
26563;BME280;14217;50.986;5.826;2023-03-01T05:37:12;102158.44;;;16.03;37.37
26563;BME280;14217;50.986;5.826;2023-03-01T05:42:16;102153.09;;;16.06;37.22
26563;BME280;14217;50.986;5.826;2023-03-01T05:47:18;102157.50;;;16.05;37.09
26563;BME280;14217;50.986;5.826;2023-03-01T05:52:23;102154.78;;;16.10;37.02
26563;BME280;14217;50.986;5.826;2023-03-01T05:57:24;102155.81;;;16.00;37.13
26563;BME280;14217;50.986;5.826;2023-03-01T06:02:27;102147.06;;;15.96;37.35
26563;BME280;14217;50.986;5.826;2023-03-01T06:07:31;102147.00;;;16.01;37.25
26563;BME280;14217;50.986;5.826;2023-03-01T06:12:36;102143.44;;;16.03;37.41
26563;BME280;14217;50.986;5.826;2023-03-01T06:17:40;102137.34;;;15.98;37.11
26563;BME280;14217;50.986;5.826;2023-03-01T06:22:43;102143.56;;;15.94;37.29
26563;BME280;14217;50.986;5.826;2023-03-01T06:27:46;102136.44;;;15.99;37.25
26563;BME280;14217;50.986;5.826;2023-03-01T06:32:49;102147.06;;;15.95;37.38
26563;BME280;14217;50.986;5.826;2023-03-01T06:37:51;102154.09;;;15.97;37.21
26563;BME280;14217;50.986;5.826;2023-03-01T06:42:54;102154.03;;;16.02;37.11
26563;BME280;14217;50.986;5.826;2023-03-01T06:48:07;102155.00;;;15.95;37.01
26563;BME280;14217;50.986;5.826;2023-03-01T06:53:09;102144.44;;;15.95;37.22
26563;BME280;14217;50.986;5.826;2023-03-01T06:58:10;102147.00;;;16.02;36.95
26563;BME280;14217;50.986;5.826;2023-03-01T07:03:17;102151.50;;;15.94;37.22
26563;BME280;14217;50.986;5.826;2023-03-01T07:08:19;102150.00;;;15.72;38.33
26563;BME280;14217;50.986;5.826;2023-03-01T07:13:21;102151.75;;;15.70;37.50
26563;BME280;14217;50.986;5.826;2023-03-01T07:18:25;102146.34;;;15.82;36.34
26563;BME280;14217;50.986;5.826;2023-03-01T07:23:28;102148.31;;;15.60;37.94
26563;BME280;14217;50.986;5.826;2023-03-01T07:28:30;102148.31;;;15.60;37.97
26563;BME280;14217;50.986;5.826;2023-03-01T07:33:37;102148.44;;;15.54;37.87
26563;BME280;14217;50.986;5.826;2023-03-01T07:38:39;102143.16;;;15.51;37.79
26563;BME280;14217;50.986;5.826;2023-03-01T07:43:41;102150.81;;;15.77;36.94
26563;BME280;14217;50.986;5.826;2023-03-01T07:48:44;102141.94;;;15.82;36.58
26563;BME280;14217;50.986;5.826;2023-03-01T07:53:48;102141.72;;;15.99;36.26
26563;BME280;14217;50.986;5.826;2023-03-01T07:58:51;102145.59;;;16.37;35.49
26563;BME280;14217;50.986;5.826;2023-03-01T08:03:54;102144.63;;;16.44;35.12
26563;BME280;14217;50.986;5.826;2023-03-01T08:08:56;102137.50;;;16.48;35.04
26563;BME280;14217;50.986;5.826;2023-03-01T08:13:58;102137.19;;;16.09;35.76
26563;BME280;14217;50.986;5.826;2023-03-01T08:19:08;102143.50;;;16.00;35.62
26563;BME280;14217;50.986;5.826;2023-03-01T08:24:10;102133.72;;;16.04;35.48
26563;BME280;14217;50.986;5.826;2023-03-01T08:29:12;102133.94;;;15.90;35.82
26563;BME280;14217;50.986;5.826;2023-03-01T08:34:16;102126.72;;;16.00;35.59
26563;BME280;14217;50.986;5.826;2023-03-01T08:39:20;102113.72;;;15.83;35.56
26563;BME280;14217;50.986;5.826;2023-03-01T08:44:22;102111.81;;;15.96;35.23
26563;BME280;14217;50.986;5.826;2023-03-01T08:49:24;102103.06;;;15.92;35.49
26563;BME280;14217;50.986;5.826;2023-03-01T08:54:26;102111.88;;;15.91;35.31
26563;BME280;14217;50.986;5.826;2023-03-01T08:59:29;102115.38;;;15.93;35.39
26563;BME280;14217;50.986;5.826;2023-03-01T09:04:37;102118.06;;;15.92;35.16
26563;BME280;14217;50.986;5.826;2023-03-01T09:09:39;102121.59;;;15.89;35.44
26563;BME280;14217;50.986;5.826;2023-03-01T09:14:41;102119.84;;;15.88;35.25
26563;BME280;14217;50.986;5.826;2023-03-01T09:19:44;102103.00;;;15.95;35.21
26563;BME280;14217;50.986;5.826;2023-03-01T09:24:46;102101.28;;;15.91;34.98
26563;BME280;14217;50.986;5.826;2023-03-01T09:29:48;102103.06;;;15.92;34.66
26563;BME280;14217;50.986;5.826;2023-03-01T09:34:50;102100.34;;;15.97;34.57
26563;BME280;14217;50.986;5.826;2023-03-01T09:40:18;102098.72;;;15.88;34.82
26563;BME280;14217;50.986;5.826;2023-03-01T09:45:41;102103.06;;;15.92;34.78
26563;BME280;14217;50.986;5.826;2023-03-01T09:50:45;102089.91;;;15.86;35.14
26563;BME280;14217;50.986;5.826;2023-03-01T09:56:03;102091.56;;;15.96;34.61
26563;BME280;14217;50.986;5.826;2023-03-01T10:06:34;102078.50;;;15.84;35.03
26563;BME280;14217;50.986;5.826;2023-03-01T10:11:38;102072.31;;;15.85;35.09
26563;BME280;14217;50.986;5.826;2023-03-01T10:16:48;102067.00;;;15.88;34.89
26563;BME280;14217;50.986;5.826;2023-03-01T10:21:52;102056.34;;;15.91;34.82
26563;BME280;14217;50.986;5.826;2023-03-01T10:27:01;102053.59;;;16.00;34.71
26563;BME280;14217;50.986;5.826;2023-03-01T10:32:08;102042.19;;;15.98;34.58
26563;BME280;14217;50.986;5.826;2023-03-01T10:37:18;102025.31;;;16.07;34.33
26563;BME280;14217;50.986;5.826;2023-03-01T10:42:32;102040.41;;;15.97;34.33
26563;BME280;14217;50.986;5.826;2023-03-01T10:47:35;102033.47;;;15.92;34.34
26563;BME280;14217;50.986;5.826;2023-03-01T10:52:40;102016.59;;;16.00;34.32
26563;BME280;14217;50.986;5.826;2023-03-01T10:57:43;102018.31;;;16.01;34.46
26563;BME280;14217;50.986;5.826;2023-03-01T11:02:51;102011.25;;;16.03;34.12
26563;BME280;14217;50.986;5.826;2023-03-01T11:08:03;102015.44;;;16.17;33.98
26563;BME280;14217;50.986;5.826;2023-03-01T11:13:19;102003.03;;;16.22;33.89
26563;BME280;14217;50.986;5.826;2023-03-01T11:18:22;102008.31;;;16.23;33.75
26563;BME280;14217;50.986;5.826;2023-03-01T11:23:43;102008.06;;;15.80;34.13
26563;BME280;14217;50.986;5.826;2023-03-01T11:28:55;101993.50;;;16.10;33.79
26563;BME280;14217;50.986;5.826;2023-03-01T11:34:12;101983.75;;;16.15;33.65
26563;BME280;14217;50.986;5.826;2023-03-01T11:39:20;101985.63;;;16.09;33.83
26563;BME280;14217;50.986;5.826;2023-03-01T11:44:27;101980.53;;;15.96;33.93
26563;BME280;14217;50.986;5.826;2023-03-01T11:55:17;101981.31;;;16.01;33.96
26563;BME280;14217;50.986;5.826;2023-03-01T12:06:21;101973.38;;;16.01;34.19
26563;BME280;14217;50.986;5.826;2023-03-01T12:12:02;101976.03;;;16.01;34.26
26563;BME280;14217;50.986;5.826;2023-03-01T12:33:14;101932.88;;;15.99;34.27
26563;BME280;14217;50.986;5.826;2023-03-01T12:38:33;101933.59;;;16.11;34.09
26563;BME280;14217;50.986;5.826;2023-03-01T12:49:10;101912.38;;;16.12;34.18
26563;BME280;14217;50.986;5.826;2023-03-01T12:54:16;101908.75;;;16.19;33.72
26563;BME280;14217;50.986;5.826;2023-03-01T13:10:54;101879.19;;;15.96;34.19
26563;BME280;14217;50.986;5.826;2023-03-01T13:21:30;101860.56;;;16.02;34.14
26563;BME280;14217;50.986;5.826;2023-03-01T13:37:34;101851.78;;;16.01;33.91
26563;BME280;14217;50.986;5.826;2023-03-01T13:42:40;101842.22;;;15.94;34.19
26563;BME280;14217;50.986;5.826;2023-03-01T13:47:43;101841.06;;;16.09;33.88
26563;BME280;14217;50.986;5.826;2023-03-01T13:53:01;101834.06;;;16.07;33.94
26563;BME280;14217;50.986;5.826;2023-03-01T13:58:22;101819.22;;;15.99;33.94
26563;BME280;14217;50.986;5.826;2023-03-01T14:03:24;101817.38;;;16.04;33.89
26563;BME280;14217;50.986;5.826;2023-03-01T14:08:30;101812.72;;;16.17;33.82
26563;BME280;14217;50.986;5.826;2023-03-01T14:24:00;101797.84;;;16.10;33.57
26563;BME280;14217;50.986;5.826;2023-03-01T14:29:02;101794.31;;;16.11;33.78
26563;BME280;14217;50.986;5.826;2023-03-01T14:34:05;101797.97;;;16.04;33.92
26563;BME280;14217;50.986;5.826;2023-03-01T14:39:19;101782.91;;;16.09;33.97
26563;BME280;14217;50.986;5.826;2023-03-01T14:44:24;101783.78;;;16.10;33.68
26563;BME280;14217;50.986;5.826;2023-03-01T14:49:29;101773.19;;;16.10;33.68
26563;BME280;14217;50.986;5.826;2023-03-01T14:54:40;101782.03;;;16.09;33.91
26563;BME280;14217;50.986;5.826;2023-03-01T14:59:43;101775.06;;;16.04;33.72
26563;BME280;14217;50.986;5.826;2023-03-01T15:04:56;101768.88;;;16.04;33.98
26563;BME280;14217;50.986;5.826;2023-03-01T15:10:03;101754.69;;;16.10;33.85
26563;BME280;14217;50.986;5.826;2023-03-01T15:15:22;101753.09;;;16.01;33.74
26563;BME280;14217;50.986;5.826;2023-03-01T15:20:28;101748.47;;;16.12;33.58
26563;BME280;14217;50.986;5.826;2023-03-01T15:25:32;101749.63;;;15.99;33.83
26563;BME280;14217;50.986;5.826;2023-03-01T15:30:35;101740.13;;;15.89;33.75
26563;BME280;14217;50.986;5.826;2023-03-01T15:35:43;101733.38;;;15.71;33.97
26563;BME280;14217;50.986;5.826;2023-03-01T15:40:49;101722.56;;;15.86;33.60
26563;BME280;14217;50.986;5.826;2023-03-01T15:45:56;101719.25;;;15.75;33.89
26563;BME280;14217;50.986;5.826;2023-03-01T15:50:59;101710.06;;;15.94;33.72
26563;BME280;14217;50.986;5.826;2023-03-01T15:56:03;101712.03;;;15.83;33.69
26563;BME280;14217;50.986;5.826;2023-03-01T16:01:12;101697.78;;;15.92;33.84
26563;BME280;14217;50.986;5.826;2023-03-01T16:06:14;101698.56;;;15.95;33.50
26563;BME280;14217;50.986;5.826;2023-03-01T16:11:18;101699.59;;;15.88;33.58
26563;BME280;14217;50.986;5.826;2023-03-01T16:16:21;101695.31;;;15.82;33.61
26563;BME280;14217;50.986;5.826;2023-03-01T16:21:24;101712.81;;;15.88;33.48
26563;BME280;14217;50.986;5.826;2023-03-01T16:26:26;101713.97;;;15.75;33.75
26563;BME280;14217;50.986;5.826;2023-03-01T16:31:30;101714.41;;;15.49;34.85
26563;BME280;14217;50.986;5.826;2023-03-01T16:36:33;101717.00;;;15.52;34.71
26563;BME280;14217;50.986;5.826;2023-03-01T16:41:34;101716.28;;;15.40;34.82
26563;BME280;14217;50.986;5.826;2023-03-01T16:46:36;101713.66;;;15.40;34.80
26563;BME280;14217;50.986;5.826;2023-03-01T16:51:38;101699.69;;;15.34;34.55
26563;BME280;14217;50.986;5.826;2023-03-01T16:56:43;101702.16;;;15.43;34.47
26563;BME280;14217;50.986;5.826;2023-03-01T17:01:45;101692.28;;;15.54;34.68
26563;BME280;14217;50.986;5.826;2023-03-01T17:14:38;101695.81;;;15.53;36.98
26563;BME280;14217;50.986;5.826;2023-03-01T17:19:42;101699.31;;;15.55;35.79
26563;BME280;14217;50.986;5.826;2023-03-01T17:24:45;101705.19;;;15.71;35.51
26563;BME280;14217;50.986;5.826;2023-03-01T17:29:47;101714.59;;;15.88;34.78
26563;BME280;14217;50.986;5.826;2023-03-01T17:34:49;101722.66;;;15.80;35.03
26563;BME280;14217;50.986;5.826;2023-03-01T17:39:51;101737.00;;;15.65;35.09
26563;BME280;14217;50.986;5.826;2023-03-01T17:44:53;101737.19;;;15.56;35.15
26563;BME280;14217;50.986;5.826;2023-03-01T17:49:55;101741.53;;;15.58;35.16
26563;BME280;14217;50.986;5.826;2023-03-01T17:54:57;101744.94;;;15.65;35.11
26563;BME280;14217;50.986;5.826;2023-03-01T17:59:59;101743.78;;;15.81;34.87
26563;BME280;14217;50.986;5.826;2023-03-01T18:05:03;101739.50;;;15.74;34.80
26563;BME280;14217;50.986;5.826;2023-03-01T18:10:06;101742.03;;;15.79;34.49
26563;BME280;14217;50.986;5.826;2023-03-01T18:15:08;101733.88;;;15.93;34.49
26563;BME280;14217;50.986;5.826;2023-03-01T18:20:10;101736.00;;;15.72;34.44
26563;BME280;14217;50.986;5.826;2023-03-01T18:25:13;101729.91;;;15.67;34.60
26563;BME280;14217;50.986;5.826;2023-03-01T18:30:15;101723.19;;;15.49;34.66
26563;BME280;14217;50.986;5.826;2023-03-01T18:35:17;101712.84;;;15.37;36.54
26563;BME280;14217;50.986;5.826;2023-03-01T18:40:19;101706.53;;;15.45;36.30
26563;BME280;14217;50.986;5.826;2023-03-01T18:45:21;101710.81;;;15.51;35.73
26563;BME280;14217;50.986;5.826;2023-03-01T18:50:23;101703.53;;;15.65;35.70
26563;BME280;14217;50.986;5.826;2023-03-01T18:55:25;101700.84;;;15.69;35.28
26563;BME280;14217;50.986;5.826;2023-03-01T19:00:27;101702.59;;;15.68;35.25
26563;BME280;14217;50.986;5.826;2023-03-01T19:05:29;101703.53;;;15.64;35.28
26563;BME280;14217;50.986;5.826;2023-03-01T19:10:31;101692.94;;;15.65;35.09
26563;BME280;14217;50.986;5.826;2023-03-01T19:15:33;101682.59;;;15.53;35.36
26563;BME280;14217;50.986;5.826;2023-03-01T19:20:35;101686.09;;;15.55;35.47
26563;BME280;14217;50.986;5.826;2023-03-01T19:25:39;101694.63;;;15.71;35.08
26563;BME280;14217;50.986;5.826;2023-03-01T19:30:42;101698.34;;;15.59;34.77
26563;BME280;14217;50.986;5.826;2023-03-01T19:35:44;101698.13;;;15.75;34.70
26563;BME280;14217;50.986;5.826;2023-03-01T19:40:45;101693.06;;;15.59;34.88
26563;BME280;14217;50.986;5.826;2023-03-01T19:45:51;101686.66;;;15.74;34.63
26563;BME280;14217;50.986;5.826;2023-03-01T19:50:53;101688.34;;;15.77;34.32
26563;BME280;14217;50.986;5.826;2023-03-01T19:55:57;101690.03;;;15.81;34.56
26563;BME280;14217;50.986;5.826;2023-03-01T20:01:00;101690.13;;;15.78;34.49
26563;BME280;14217;50.986;5.826;2023-03-01T20:06:16;101686.81;;;15.63;34.71
26563;BME280;14217;50.986;5.826;2023-03-01T20:11:21;101688.34;;;15.77;34.28
26563;BME280;14217;50.986;5.826;2023-03-01T20:16:23;101689.44;;;15.65;34.63
26563;BME280;14217;50.986;5.826;2023-03-01T20:21:27;101694.72;;;15.67;34.69
26563;BME280;14217;50.986;5.826;2023-03-01T20:26:29;101696.28;;;15.77;34.32
26563;BME280;14217;50.986;5.826;2023-03-01T20:31:33;101699.91;;;15.73;34.21
26563;BME280;14217;50.986;5.826;2023-03-01T20:36:35;101692.91;;;15.69;34.49
26563;BME280;14217;50.986;5.826;2023-03-01T20:41:39;101698.16;;;15.70;34.56
26563;BME280;14217;50.986;5.826;2023-03-01T20:46:41;101684.06;;;15.73;34.28
26563;BME280;14217;50.986;5.826;2023-03-01T20:51:43;101689.16;;;15.82;34.46
26563;BME280;14217;50.986;5.826;2023-03-01T20:56:46;101684.06;;;15.73;34.60
26563;BME280;14217;50.986;5.826;2023-03-01T21:01:48;101682.16;;;15.79;34.37
26563;BME280;14217;50.986;5.826;2023-03-01T21:06:50;101681.41;;;15.73;34.42
26563;BME280;14217;50.986;5.826;2023-03-01T21:11:53;101693.41;;;15.89;34.05
26563;BME280;14217;50.986;5.826;2023-03-01T21:16:54;101693.63;;;15.78;34.29
26563;BME280;14217;50.986;5.826;2023-03-01T21:21:56;101691.69;;;15.87;34.25
26563;BME280;14217;50.986;5.826;2023-03-01T21:26:59;101684.91;;;15.75;34.42
26563;BME280;14217;50.986;5.826;2023-03-01T21:32:03;101688.44;;;15.72;34.24
26563;BME280;14217;50.986;5.826;2023-03-01T21:37:07;101678.59;;;15.82;34.17
26563;BME280;14217;50.986;5.826;2023-03-01T21:42:10;101681.28;;;15.79;34.24
26563;BME280;14217;50.986;5.826;2023-03-01T21:47:13;101679.69;;;15.69;34.33
26563;BME280;14217;50.986;5.826;2023-03-01T21:52:15;101675.31;;;15.68;34.51
26563;BME280;14217;50.986;5.826;2023-03-01T21:57:18;101672.56;;;15.75;34.11
26563;BME280;14217;50.986;5.826;2023-03-01T22:02:20;101669.41;;;15.53;34.62
26563;BME280;14217;50.986;5.826;2023-03-01T22:07:22;101657.00;;;15.57;39.30
26563;BME280;14217;50.986;5.826;2023-03-01T22:12:24;101654.38;;;15.57;39.40
26563;BME280;14217;50.986;5.826;2023-03-01T22:17:26;101652.72;;;15.51;38.84
26563;BME280;14217;50.986;5.826;2023-03-01T22:22:28;101654.47;;;15.52;38.10
26563;BME280;14217;50.986;5.826;2023-03-01T22:27:29;101665.56;;;15.71;37.47
26563;BME280;14217;50.986;5.826;2023-03-01T22:32:32;101664.44;;;15.83;37.21
26563;BME280;14217;50.986;5.826;2023-03-01T22:37:34;101655.84;;;15.75;36.77
26563;BME280;14217;50.986;5.826;2023-03-01T22:42:36;101657.53;;;15.77;36.58
26563;BME280;14217;50.986;5.826;2023-03-01T22:47:37;101664.72;;;15.68;36.54
26563;BME280;14217;50.986;5.826;2023-03-01T22:52:39;101662.63;;;15.87;36.36
26563;BME280;14217;50.986;5.826;2023-03-01T22:57:42;101648.00;;;15.69;36.35
26563;BME280;14217;50.986;5.826;2023-03-01T23:02:44;101657.56;;;15.76;36.14
26563;BME280;14217;50.986;5.826;2023-03-01T23:07:47;101650.59;;;15.72;35.85
26563;BME280;14217;50.986;5.826;2023-03-01T23:12:49;101665.41;;;15.79;35.79
26563;BME280;14217;50.986;5.826;2023-03-01T23:17:51;101666.41;;;15.75;35.95
26563;BME280;14217;50.986;5.826;2023-03-01T23:22:53;101667.09;;;15.83;35.90
26563;BME280;14217;50.986;5.826;2023-03-01T23:28:02;101668.13;;;15.76;35.70
26563;BME280;14217;50.986;5.826;2023-03-01T23:33:04;101671.72;;;15.73;36.02
26563;BME280;14217;50.986;5.826;2023-03-01T23:38:06;101663.78;;;15.73;35.80
26563;BME280;14217;50.986;5.826;2023-03-01T23:43:08;101662.88;;;15.74;35.50
26563;BME280;14217;50.986;5.826;2023-03-01T23:48:13;101656.81;;;15.66;35.79
26563;BME280;14217;50.986;5.826;2023-03-01T23:53:17;101662.78;;;15.79;35.76
26563;BME280;14217;50.986;5.826;2023-03-01T23:58:20;101670.84;;;15.73;35.60
